createdAt,value
2019-03-20T00:00:09.771Z,93.63
2019-03-20T00:01:09.733Z,93.47
2019-03-20T00:02:09.722Z,93.15
2019-03-20T00:03:09.718Z,93.26
2019-03-20T00:04:09.700Z,94.21
2019-03-20T00:05:09.687Z,95.32
2019-03-20T00:06:09.689Z,95.10
2019-03-20T00:07:09.669Z,95.32
2019-03-20T00:08:09.658Z,94.58
2019-03-20T00:09:09.654Z,94.69
2019-03-20T00:10:09.649Z,94.52
2019-03-20T00:11:09.649Z,94.52
2019-03-20T00:12:09.617Z,94.21
2019-03-20T00:13:09.605Z,94.52
2019-03-20T00:14:09.595Z,94.37
2019-03-20T00:15:09.585Z,94.31
2019-03-20T00:16:09.591Z,94.21
2019-03-20T00:17:09.568Z,94.52
2019-03-20T00:18:09.611Z,94.10
2019-03-20T00:19:09.573Z,93.89
2019-03-20T00:20:09.555Z,93.68
2019-03-20T00:21:09.534Z,94.10
2019-03-20T00:22:09.518Z,94.10
2019-03-20T00:23:09.549Z,93.68
2019-03-20T00:24:09.498Z,93.68
2019-03-20T00:25:09.482Z,93.79
2019-03-20T00:26:09.502Z,93.41
2019-03-20T00:27:09.461Z,93.57
2019-03-20T00:28:09.449Z,93.93
2019-03-20T00:29:09.452Z,93.79
2019-03-20T00:30:09.429Z,93.62
2019-03-20T00:31:09.446Z,93.83
2019-03-20T00:32:09.405Z,93.30
2019-03-20T00:33:09.396Z,93.57
2019-03-20T00:34:09.390Z,93.72
2019-03-20T00:35:09.385Z,93.41
2019-03-20T00:36:09.418Z,93.41
2019-03-20T00:37:09.382Z,93.62
2019-03-20T00:38:09.344Z,93.72
2019-03-20T00:39:09.337Z,93.51
2019-03-20T00:40:09.366Z,93.99
2019-03-20T00:41:09.318Z,93.89
2019-03-20T00:42:09.322Z,93.72
2019-03-20T00:43:09.298Z,93.72
2019-03-20T00:44:09.285Z,93.72
2019-03-20T00:45:09.276Z,93.83
2019-03-20T00:46:09.268Z,93.93
2019-03-20T00:47:09.264Z,93.41
2019-03-20T00:48:09.238Z,93.19
2019-03-20T00:49:09.240Z,94.14
2019-03-20T00:50:09.218Z,93.62
2019-03-20T00:51:09.204Z,94.04
2019-03-20T00:52:09.208Z,93.72
2019-03-20T00:53:09.186Z,94.46
2019-03-20T00:54:09.184Z,94.67
2019-03-20T00:55:09.214Z,94.67
2019-03-20T00:56:09.160Z,93.83
2019-03-20T00:57:09.158Z,94.56
2019-03-20T00:58:09.142Z,94.56
2019-03-20T00:59:09.125Z,94.88
2019-03-20T01:00:09.192Z,95.40
2019-03-20T01:01:09.116Z,95.15
2019-03-20T01:02:09.102Z,95.04
2019-03-20T01:03:09.087Z,95.30
2019-03-20T01:04:09.076Z,95.20
2019-03-20T01:05:12.848Z,95.51
2019-03-20T01:06:09.055Z,95.20
2019-03-20T01:07:10.181Z,95.72
2019-03-20T01:08:09.033Z,95.51
2019-03-20T01:09:09.022Z,94.98
2019-03-20T01:10:09.014Z,94.88
2019-03-20T01:11:09.057Z,95.40
2019-03-20T01:12:09.003Z,94.88
2019-03-20T01:13:09.011Z,94.04
2019-03-20T01:14:08.971Z,94.14
2019-03-20T01:15:08.980Z,94.56
2019-03-20T01:16:08.950Z,94.04
2019-03-20T01:17:08.981Z,94.60
2019-03-20T01:18:08.943Z,94.29
2019-03-20T01:19:08.913Z,93.93
2019-03-20T01:20:08.919Z,93.83
2019-03-20T01:21:08.890Z,94.60
2019-03-20T01:22:08.881Z,93.72
2019-03-20T01:23:08.893Z,94.14
2019-03-20T01:24:08.907Z,94.50
2019-03-20T01:25:08.859Z,95.24
2019-03-20T01:26:08.841Z,95.13
2019-03-20T01:27:08.847Z,94.50
2019-03-20T01:28:08.855Z,94.40
2019-03-20T01:29:08.807Z,94.50
2019-03-20T01:30:08.807Z,93.87
2019-03-20T01:31:08.791Z,93.87
2019-03-20T01:32:08.827Z,94.29
2019-03-20T01:33:08.908Z,94.18
2019-03-20T01:34:08.762Z,93.98
2019-03-20T01:35:08.759Z,93.87
2019-03-20T01:36:08.758Z,93.87
2019-03-20T01:37:08.731Z,94.18
2019-03-20T01:38:08.741Z,93.98
2019-03-20T01:39:08.711Z,93.80
2019-03-20T01:40:08.721Z,94.71
2019-03-20T01:41:08.699Z,94.96
2019-03-20T01:42:08.671Z,94.82
2019-03-20T01:43:08.670Z,94.23
2019-03-20T01:44:08.660Z,94.65
2019-03-20T01:45:08.707Z,93.60
2019-03-20T01:46:08.629Z,93.80
2019-03-20T01:47:08.619Z,93.87
2019-03-20T01:48:08.607Z,93.76
2019-03-20T01:49:08.616Z,93.80
2019-03-20T01:50:08.585Z,93.80
2019-03-20T01:51:08.581Z,93.91
2019-03-20T01:52:08.615Z,93.91
2019-03-20T01:53:08.573Z,93.70
2019-03-20T01:54:08.564Z,94.02
2019-03-20T01:55:08.533Z,94.12
2019-03-20T01:56:08.535Z,94.02
2019-03-20T01:57:08.513Z,93.80
2019-03-20T01:58:08.502Z,94.23
2019-03-20T01:59:08.514Z,93.70
2019-03-20T02:00:08.526Z,93.80
2019-03-20T02:01:08.482Z,93.53
2019-03-20T02:02:08.468Z,93.53
2019-03-20T02:03:08.462Z,93.60
2019-03-20T02:04:08.466Z,93.64
2019-03-20T02:05:08.435Z,93.95
2019-03-20T02:06:08.482Z,93.74
2019-03-20T02:07:08.408Z,94.06
2019-03-20T02:08:08.411Z,94.06
2019-03-20T02:09:08.396Z,93.95
2019-03-20T02:10:08.382Z,94.27
2019-03-20T02:11:08.432Z,94.27
2019-03-20T02:12:08.358Z,93.85
2019-03-20T02:13:08.356Z,94.06
2019-03-20T02:14:08.356Z,93.53
2019-03-20T02:15:08.326Z,93.53
2019-03-20T02:16:08.324Z,93.53
2019-03-20T02:17:08.319Z,94.06
2019-03-20T02:18:08.308Z,93.85
2019-03-20T02:19:08.318Z,93.95
2019-03-20T02:20:08.280Z,94.59
2019-03-20T02:21:08.272Z,94.80
2019-03-20T02:22:08.319Z,94.38
2019-03-20T02:23:08.248Z,94.59
2019-03-20T02:24:08.250Z,94.59
2019-03-20T02:25:08.224Z,94.17
2019-03-20T02:26:08.218Z,94.48
2019-03-20T02:27:08.209Z,94.17
2019-03-20T02:28:08.194Z,93.85
2019-03-20T02:29:08.210Z,94.06
2019-03-20T02:30:08.172Z,94.06
2019-03-20T02:31:08.166Z,94.06
2019-03-20T02:32:08.208Z,94.17
2019-03-20T02:33:08.146Z,93.85
2019-03-20T02:34:08.133Z,93.85
2019-03-20T02:35:08.131Z,94.06
2019-03-20T02:36:08.104Z,94.17
2019-03-20T02:37:08.109Z,94.59
2019-03-20T02:38:08.109Z,95.32
2019-03-20T02:39:08.076Z,95.22
2019-03-20T02:40:08.095Z,95.22
2019-03-20T02:41:08.054Z,95.43
2019-03-20T02:42:08.042Z,95.22
2019-03-20T02:43:08.033Z,94.80
2019-03-20T02:44:08.067Z,95.01
2019-03-20T02:45:08.033Z,94.84
2019-03-20T02:46:08.012Z,94.53
2019-03-20T02:47:08.005Z,94.17
2019-03-20T02:48:08.029Z,93.89
2019-03-20T02:49:07.975Z,94.10
2019-03-20T02:50:08.040Z,94.73
2019-03-20T02:51:07.959Z,94.69
2019-03-20T02:52:07.942Z,94.73
2019-03-20T02:53:07.956Z,93.79
2019-03-20T02:54:07.948Z,94.27
2019-03-20T02:55:07.938Z,94.31
2019-03-20T02:56:07.909Z,94.21
2019-03-20T02:57:07.897Z,93.89
2019-03-20T02:58:07.884Z,93.99
2019-03-20T02:59:07.871Z,93.89
2019-03-20T03:00:07.910Z,93.99
2019-03-20T03:01:07.842Z,93.99
2019-03-20T03:02:07.834Z,94.73
2019-03-20T03:03:07.852Z,95.05
2019-03-20T03:04:07.870Z,95.37
2019-03-20T03:05:07.812Z,95.32
2019-03-20T03:06:07.922Z,95.43
2019-03-20T03:07:07.870Z,95.47
2019-03-20T03:08:07.771Z,95.43
2019-03-20T03:09:07.787Z,95.26
2019-03-20T03:10:07.769Z,95.37
2019-03-20T03:11:07.774Z,94.63
2019-03-20T03:12:07.729Z,94.95
2019-03-20T03:13:07.725Z,94.84
2019-03-20T03:14:07.771Z,94.84
2019-03-20T03:15:07.710Z,94.73
2019-03-20T03:16:07.708Z,94.73
2019-03-20T03:17:07.684Z,93.99
2019-03-20T03:18:07.749Z,94.53
2019-03-20T03:19:07.660Z,94.53
2019-03-20T03:20:07.655Z,94.10
2019-03-20T03:21:07.647Z,94.31
2019-03-20T03:22:07.624Z,94.73
2019-03-20T03:23:07.626Z,95.05
2019-03-20T03:24:07.608Z,95.05
2019-03-20T03:25:07.595Z,94.84
2019-03-20T03:26:07.606Z,94.73
2019-03-20T03:27:07.671Z,94.53
2019-03-20T03:28:07.569Z,94.25
2019-03-20T03:29:07.551Z,94.21
2019-03-20T03:30:07.562Z,94.35
2019-03-20T03:31:07.559Z,94.78
2019-03-20T03:32:07.531Z,95.15
2019-03-20T03:33:07.515Z,95.15
2019-03-20T03:34:07.574Z,95.57
2019-03-20T03:35:07.509Z,95.26
2019-03-20T03:36:20.540Z,95.15
2019-03-20T03:37:08.497Z,95.26
2019-03-20T03:38:07.458Z,95.57
2019-03-20T03:39:07.454Z,95.47
2019-03-20T03:40:07.458Z,95.15
2019-03-20T03:41:07.426Z,96.00
2019-03-20T03:42:07.442Z,95.15
2019-03-20T03:43:07.415Z,95.37
2019-03-20T03:44:07.394Z,95.26
2019-03-20T03:45:07.390Z,94.99
2019-03-20T03:46:07.445Z,94.95
2019-03-20T03:47:07.382Z,95.05
2019-03-20T03:48:07.362Z,94.84
2019-03-20T03:49:07.382Z,95.15
2019-03-20T03:50:07.336Z,94.95
2019-03-20T03:51:07.332Z,94.63
2019-03-20T03:52:07.329Z,94.67
2019-03-20T03:53:07.306Z,94.21
2019-03-20T03:54:07.292Z,94.21
2019-03-20T03:55:07.343Z,94.10
2019-03-20T03:56:07.276Z,93.89
2019-03-20T03:57:07.278Z,93.68
2019-03-20T03:58:07.249Z,94.21
2019-03-20T03:59:07.239Z,94.15
2019-03-20T04:00:07.241Z,94.42
2019-03-20T04:01:07.228Z,94.84
2019-03-20T04:02:07.282Z,94.53
2019-03-20T04:03:07.203Z,95.20
2019-03-20T04:04:07.196Z,94.95
2019-03-20T04:05:07.181Z,94.84
2019-03-20T04:06:07.175Z,95.05
2019-03-20T04:07:07.183Z,94.89
2019-03-20T04:08:07.158Z,94.25
2019-03-20T04:09:07.141Z,94.67
2019-03-20T04:10:07.133Z,93.93
2019-03-20T04:11:07.230Z,93.93
2019-03-20T04:12:07.171Z,94.53
2019-03-20T04:13:07.094Z,94.46
2019-03-20T04:14:07.079Z,94.73
2019-03-20T04:15:07.075Z,94.89
2019-03-20T04:16:07.066Z,94.25
2019-03-20T04:17:07.073Z,94.25
2019-03-20T04:18:07.044Z,94.78
2019-03-20T04:19:07.032Z,95.31
2019-03-20T04:20:07.025Z,94.95
2019-03-20T04:21:07.057Z,95.41
2019-03-20T04:22:06.997Z,94.99
2019-03-20T04:23:07.012Z,95.51
2019-03-20T04:24:06.982Z,95.09
2019-03-20T04:25:06.968Z,95.37
2019-03-20T04:26:06.958Z,95.62
2019-03-20T04:27:07.002Z,95.31
2019-03-20T04:28:06.966Z,95.89
2019-03-20T04:29:06.923Z,95.62
2019-03-20T04:30:06.917Z,95.31
2019-03-20T04:31:06.964Z,95.51
2019-03-20T04:32:06.900Z,95.20
2019-03-20T04:33:06.911Z,94.89
2019-03-20T04:34:06.868Z,94.40
2019-03-20T04:35:06.863Z,94.29
2019-03-20T04:36:06.877Z,94.82
2019-03-20T04:37:06.847Z,94.19
2019-03-20T04:38:06.851Z,94.19
2019-03-20T04:39:06.820Z,93.93
2019-03-20T04:40:06.860Z,94.40
2019-03-20T04:41:06.799Z,94.29
2019-03-20T04:42:06.787Z,94.40
2019-03-20T04:43:06.791Z,94.08
2019-03-20T04:44:06.773Z,93.98
2019-03-20T04:45:06.756Z,93.98
2019-03-20T04:46:06.773Z,94.61
2019-03-20T04:47:06.741Z,95.09
2019-03-20T04:48:06.745Z,94.82
2019-03-20T04:49:06.715Z,94.99
2019-03-20T04:50:06.708Z,94.82
2019-03-20T04:51:06.697Z,94.93
2019-03-20T04:52:06.689Z,94.29
2019-03-20T04:53:06.710Z,94.40
2019-03-20T04:54:06.661Z,94.61
2019-03-20T04:55:06.661Z,94.82
2019-03-20T04:56:06.657Z,94.40
2019-03-20T04:57:06.637Z,94.82
2019-03-20T04:58:06.629Z,94.71
2019-03-20T04:59:06.654Z,94.71
2019-03-20T05:00:06.603Z,94.61
2019-03-20T05:01:06.588Z,94.19
2019-03-20T05:02:06.584Z,94.93
2019-03-20T05:03:06.567Z,94.71
2019-03-20T05:04:06.582Z,94.08
2019-03-20T05:05:06.553Z,94.19
2019-03-20T05:06:06.545Z,94.29
2019-03-20T05:07:06.560Z,94.08
2019-03-20T05:08:06.516Z,94.86
2019-03-20T05:09:06.531Z,94.93
2019-03-20T05:10:06.497Z,94.93
2019-03-20T05:11:06.487Z,94.61
2019-03-20T05:12:06.492Z,94.29
2019-03-20T05:13:06.462Z,94.61
2019-03-20T05:14:06.467Z,94.82
2019-03-20T05:15:06.446Z,95.03
2019-03-20T05:16:06.432Z,95.24
2019-03-20T05:17:06.453Z,94.93
2019-03-20T05:18:06.420Z,94.93
2019-03-20T05:19:06.481Z,95.35
2019-03-20T05:20:06.388Z,95.14
2019-03-20T05:21:06.390Z,95.67
2019-03-20T05:22:06.422Z,94.82
2019-03-20T05:23:08.458Z,95.14
2019-03-20T05:24:06.358Z,95.03
2019-03-20T05:25:06.351Z,94.82
2019-03-20T05:26:06.340Z,94.71
2019-03-20T05:27:06.316Z,94.51
2019-03-20T05:28:06.312Z,94.89
2019-03-20T05:29:06.408Z,95.31
2019-03-20T05:30:06.307Z,95.62
2019-03-20T05:31:06.273Z,95.20
2019-03-20T05:32:06.275Z,95.41
2019-03-20T05:33:06.268Z,95.47
2019-03-20T05:34:06.260Z,95.57
2019-03-20T05:35:06.231Z,95.83
2019-03-20T05:36:06.226Z,95.83
2019-03-20T05:37:10.621Z,95.79
2019-03-20T05:38:06.222Z,95.79
2019-03-20T05:39:06.200Z,95.62
2019-03-20T05:40:06.196Z,95.57
2019-03-20T05:41:06.169Z,95.75
2019-03-20T05:42:06.158Z,95.53
2019-03-20T05:43:06.152Z,95.53
2019-03-20T05:44:06.162Z,95.64
2019-03-20T05:45:06.142Z,95.53
2019-03-20T05:46:06.117Z,95.53
2019-03-20T05:47:06.106Z,95.49
2019-03-20T05:48:06.094Z,95.49
2019-03-20T05:49:06.104Z,95.49
2019-03-20T05:50:06.079Z,95.60
2019-03-20T05:51:06.064Z,95.34
2019-03-20T05:52:06.059Z,95.49
2019-03-20T05:53:06.077Z,95.45
2019-03-20T05:54:06.053Z,95.76
2019-03-20T05:55:06.025Z,95.66
2019-03-20T05:56:06.018Z,95.97
2019-03-20T05:57:06.006Z,95.45
2019-03-20T05:58:06.027Z,95.51
2019-03-20T05:59:06.003Z,95.30
2019-03-20T06:00:05.977Z,95.93
2019-03-20T06:01:05.965Z,95.40
2019-03-20T06:02:05.949Z,95.36
2019-03-20T06:03:05.947Z,95.26
2019-03-20T06:04:05.931Z,95.21
2019-03-20T06:05:05.939Z,95.57
2019-03-20T06:06:05.923Z,95.36
2019-03-20T06:07:05.898Z,95.95
2019-03-20T06:08:05.891Z,95.64
2019-03-20T06:09:05.875Z,95.48
2019-03-20T06:10:05.890Z,96.33
2019-03-20T06:11:05.873Z,96.75
2019-03-20T06:12:05.845Z,95.59
2019-03-20T06:13:05.843Z,96.01
2019-03-20T06:14:05.821Z,95.44
2019-03-20T06:15:05.827Z,95.54
2019-03-20T06:16:05.805Z,95.34
2019-03-20T06:17:05.816Z,95.54
2019-03-20T06:18:05.791Z,96.39
2019-03-20T06:19:05.775Z,95.92
2019-03-20T06:20:05.774Z,95.92
2019-03-20T06:21:05.755Z,96.51
2019-03-20T06:22:05.737Z,96.51
2019-03-20T06:23:05.745Z,95.88
2019-03-20T06:24:05.722Z,95.98
2019-03-20T06:25:05.727Z,95.46
2019-03-20T06:26:05.702Z,95.31
2019-03-20T06:27:05.687Z,95.73
2019-03-20T06:28:05.676Z,95.31
2019-03-20T06:29:05.674Z,94.89
2019-03-20T06:30:05.720Z,95.31
2019-03-20T06:31:05.656Z,96.00
2019-03-20T06:32:05.644Z,95.90
2019-03-20T06:33:05.638Z,96.31
2019-03-20T06:34:05.631Z,96.31
2019-03-20T06:35:05.623Z,96.06
2019-03-20T06:36:05.596Z,95.96
2019-03-20T06:37:05.632Z,96.37
2019-03-20T06:38:05.574Z,96.55
2019-03-20T06:39:05.566Z,97.06
2019-03-20T06:40:05.584Z,97.44
2019-03-20T06:41:05.544Z,96.92
2019-03-20T06:42:05.527Z,97.02
2019-03-20T06:43:05.524Z,97.50
2019-03-20T06:44:05.512Z,97.61
2019-03-20T06:45:05.502Z,97.56
2019-03-20T06:46:05.509Z,97.35
2019-03-20T06:47:05.478Z,97.45
2019-03-20T06:48:05.465Z,97.62
2019-03-20T06:49:07.767Z,97.31
2019-03-20T06:50:05.502Z,97.31
2019-03-20T06:51:05.448Z,97.58
2019-03-20T06:52:05.764Z,97.05
2019-03-20T06:53:13.970Z,97.16
2019-03-20T06:54:05.406Z,96.80
2019-03-20T06:55:05.392Z,96.80
2019-03-20T06:56:05.684Z,96.49
2019-03-20T06:57:05.372Z,96.34
2019-03-20T06:58:05.368Z,96.55
2019-03-20T06:59:05.350Z,95.88
2019-03-20T07:00:05.588Z,95.46
2019-03-20T07:01:05.343Z,95.21
2019-03-20T07:02:05.314Z,95.00
2019-03-20T07:03:05.326Z,94.58
2019-03-20T07:04:05.297Z,94.75
2019-03-20T07:05:05.290Z,94.33
2019-03-20T07:06:05.296Z,94.70
2019-03-20T07:07:05.263Z,92.83
2019-03-20T07:08:05.269Z,91.85
2019-03-20T07:09:05.248Z,91.50
2019-03-20T07:10:05.229Z,91.28
2019-03-20T07:11:05.240Z,91.28
2019-03-20T07:12:05.214Z,91.97
2019-03-20T07:13:05.202Z,90.93
2019-03-20T07:14:05.197Z,90.93
2019-03-20T07:15:05.186Z,89.85
2019-03-20T07:16:05.288Z,89.70
2019-03-20T07:17:05.157Z,89.39
2019-03-20T07:18:05.147Z,88.31
2019-03-20T07:19:05.155Z,87.48
2019-03-20T07:20:05.141Z,88.31
2019-03-20T07:21:05.135Z,87.96
2019-03-20T07:22:05.125Z,88.65
2019-03-20T07:23:05.096Z,86.02
2019-03-20T07:24:05.085Z,85.13
2019-03-20T07:25:05.075Z,86.18
2019-03-20T07:26:05.078Z,81.99
2019-03-20T07:27:05.097Z,74.02
2019-03-20T07:28:05.043Z,72.38
2019-03-20T07:29:05.039Z,71.72
2019-03-20T07:30:05.025Z,68.68
2019-03-20T07:31:14.715Z,65.62
2019-03-20T07:32:06.040Z,59.63
2019-03-20T07:33:04.995Z,57.73
2019-03-20T07:34:04.983Z,59.62
2019-03-20T07:35:04.966Z,58.14
2019-03-20T07:36:04.984Z,58.76
2019-03-20T07:37:04.947Z,55.86
2019-03-20T07:38:04.938Z,54.59
2019-03-20T07:39:04.933Z,51.39
2019-03-20T07:40:04.929Z,51.34
2019-03-20T07:41:04.903Z,46.78
2019-03-20T07:42:04.907Z,47.26
2019-03-20T07:43:08.955Z,48.05
2019-03-20T07:44:04.869Z,46.69
2019-03-20T07:45:04.863Z,46.01
2019-03-20T07:46:04.858Z,44.96
2019-03-20T07:47:04.942Z,42.92
2019-03-20T07:48:04.834Z,42.78
2019-03-20T07:49:04.825Z,41.55
2019-03-20T07:50:04.811Z,40.50
2019-03-20T07:51:04.794Z,41.27
2019-03-20T07:52:04.816Z,39.96
2019-03-20T07:53:04.778Z,37.34
2019-03-20T07:54:04.769Z,38.03
2019-03-20T07:55:04.757Z,35.83
2019-03-20T07:56:04.746Z,36.94
2019-03-20T07:57:04.741Z,36.64
2019-03-20T07:58:04.722Z,37.24
2019-03-20T07:59:04.719Z,36.74
2019-03-20T08:00:04.698Z,37.83
2019-03-20T08:01:04.686Z,36.72
2019-03-20T08:02:04.696Z,35.82
2019-03-20T08:03:04.664Z,37.01
2019-03-20T08:04:04.665Z,37.37
2019-03-20T08:05:04.652Z,35.14
2019-03-20T08:06:04.672Z,33.52
2019-03-20T08:07:04.638Z,34.63
2019-03-20T08:08:07.590Z,34.71
2019-03-20T08:09:04.606Z,33.20
2019-03-20T08:10:04.601Z,33.40
2019-03-20T08:11:04.582Z,34.09
2019-03-20T08:12:04.606Z,33.78
2019-03-20T08:13:04.563Z,32.59
2019-03-20T08:14:04.566Z,33.61
2019-03-20T08:15:04.546Z,33.58
2019-03-20T08:16:04.542Z,32.37
2019-03-20T08:17:04.525Z,32.47
2019-03-20T08:18:04.522Z,32.79
2019-03-20T08:19:04.529Z,32.49
2019-03-20T08:20:04.488Z,32.59
2019-03-20T08:21:04.478Z,32.69
2019-03-20T08:22:04.463Z,33.59
2019-03-20T08:23:04.467Z,32.99
2019-03-20T08:24:04.475Z,34.09
2019-03-20T08:25:04.433Z,31.18
2019-03-20T08:26:04.425Z,32.50
2019-03-20T08:27:04.437Z,33.59
2019-03-20T08:28:04.423Z,32.69
2019-03-20T08:29:04.393Z,33.49
2019-03-20T08:30:04.380Z,32.50
2019-03-20T08:31:04.374Z,32.50
2019-03-20T08:32:04.367Z,33.44
2019-03-20T08:33:04.399Z,33.22
2019-03-20T08:34:04.347Z,32.73
2019-03-20T08:35:04.322Z,33.04
2019-03-20T08:36:04.336Z,33.44
2019-03-20T08:37:04.352Z,33.64
2019-03-20T08:38:04.313Z,33.44
2019-03-20T08:39:04.287Z,34.47
2019-03-20T08:40:04.280Z,35.19
2019-03-20T08:41:04.259Z,34.52
2019-03-20T08:42:04.264Z,34.83
2019-03-20T08:43:04.393Z,35.75
2019-03-20T08:44:04.245Z,36.19
2019-03-20T08:45:04.241Z,35.72
2019-03-20T08:46:04.320Z,37.77
2019-03-20T08:47:04.199Z,39.42
2019-03-20T08:48:04.210Z,39.54
2019-03-20T08:49:04.297Z,41.46
2019-03-20T08:50:04.176Z,40.09
2019-03-20T08:51:04.171Z,40.41
2019-03-20T08:52:04.168Z,40.20
2019-03-20T08:53:04.148Z,41.50
2019-03-20T08:54:04.123Z,39.98
2019-03-20T08:55:04.118Z,42.11
2019-03-20T08:56:04.103Z,40.41
2019-03-20T08:57:04.099Z,41.74
2019-03-20T08:58:04.105Z,42.69
2019-03-20T08:59:04.073Z,42.31
2019-03-20T09:00:04.059Z,43.23
2019-03-20T09:01:04.053Z,44.85
2019-03-20T09:02:04.036Z,42.82
2019-03-20T09:03:04.038Z,43.75
2019-03-20T09:04:04.020Z,44.89
2019-03-20T09:05:04.008Z,45.80
2019-03-20T09:06:04.005Z,46.13
2019-03-20T09:07:03.980Z,45.40
2019-03-20T09:08:04.006Z,45.32
2019-03-20T09:09:03.959Z,45.11
2019-03-20T09:10:03.952Z,45.84
2019-03-20T09:11:03.949Z,46.97
2019-03-20T09:12:03.941Z,46.25
2019-03-20T09:13:03.928Z,46.15
2019-03-20T09:14:03.961Z,45.52
2019-03-20T09:15:03.890Z,45.52
2019-03-20T09:16:03.884Z,44.67
2019-03-20T09:17:03.919Z,42.92
2019-03-20T09:18:03.895Z,43.00
2019-03-20T09:19:03.857Z,42.86
2019-03-20T09:20:03.841Z,42.23
2019-03-20T09:21:03.832Z,41.64
2019-03-20T09:22:03.818Z,42.80
2019-03-20T09:23:03.816Z,44.44
2019-03-20T09:24:03.858Z,43.73
2019-03-20T09:25:03.802Z,43.14
2019-03-20T09:26:03.782Z,44.87
2019-03-20T09:27:03.769Z,42.54
2019-03-20T09:28:03.800Z,43.35
2019-03-20T09:29:03.776Z,43.93
2019-03-20T09:30:03.733Z,43.35
2019-03-20T09:31:03.733Z,44.91
2019-03-20T09:32:03.722Z,44.79
2019-03-20T09:33:03.696Z,43.65
2019-03-20T09:34:03.799Z,43.51
2019-03-20T09:35:03.690Z,41.54
2019-03-20T09:36:03.666Z,42.43
2019-03-20T09:37:03.663Z,41.30
2019-03-20T09:38:03.659Z,41.52
2019-03-20T09:39:03.662Z,43.16
2019-03-20T09:40:03.629Z,42.88
2019-03-20T09:41:03.630Z,42.78
2019-03-20T09:42:03.615Z,41.97
2019-03-20T09:43:03.656Z,42.29
2019-03-20T09:44:03.606Z,42.82
2019-03-20T09:45:03.580Z,43.02
2019-03-20T09:46:03.564Z,43.12
2019-03-20T09:47:03.559Z,42.47
2019-03-20T09:48:03.556Z,43.26
2019-03-20T09:49:03.543Z,41.95
2019-03-20T09:50:03.523Z,41.95
2019-03-20T09:51:03.511Z,42.55
2019-03-20T09:52:03.501Z,42.05
2019-03-20T09:53:03.485Z,41.12
2019-03-20T09:54:03.508Z,42.01
2019-03-20T09:55:03.463Z,40.51
2019-03-20T09:56:03.449Z,39.50
2019-03-20T09:57:03.443Z,39.97
2019-03-20T09:58:11.167Z,39.02
2019-03-20T09:59:04.431Z,38.98
2019-03-20T10:00:03.408Z,39.45
2019-03-20T10:01:03.403Z,37.70
2019-03-20T10:02:03.464Z,37.85
2019-03-20T10:03:03.385Z,35.61
2019-03-20T10:04:03.377Z,35.23
2019-03-20T10:05:03.359Z,37.68
2019-03-20T10:06:03.373Z,37.80
2019-03-20T10:07:03.343Z,38.32
2019-03-20T10:08:03.329Z,37.51
2019-03-20T10:09:03.328Z,39.23
2019-03-20T10:10:03.307Z,37.51
2019-03-20T10:11:03.293Z,37.62
2019-03-20T10:12:03.308Z,37.40
2019-03-20T10:13:03.277Z,38.20
2019-03-20T10:14:03.275Z,37.40
2019-03-20T10:15:03.321Z,37.58
2019-03-20T10:16:03.243Z,37.06
2019-03-20T10:17:03.235Z,37.26
2019-03-20T10:18:03.219Z,37.27
2019-03-20T10:19:03.226Z,37.36
2019-03-20T10:20:03.195Z,37.26
2019-03-20T10:21:03.188Z,37.74
2019-03-20T10:22:03.188Z,37.36
2019-03-20T10:23:03.209Z,37.26
2019-03-20T10:24:03.239Z,37.66
2019-03-20T10:25:03.162Z,36.84
2019-03-20T10:26:03.228Z,37.41
2019-03-20T10:27:03.138Z,36.58
2019-03-20T10:28:03.105Z,36.00
2019-03-20T10:29:03.117Z,36.04
2019-03-20T10:30:03.090Z,37.29
2019-03-20T10:31:03.091Z,38.64
2019-03-20T10:32:03.063Z,39.06
2019-03-20T10:33:03.054Z,40.50
2019-03-20T10:34:03.066Z,39.17
2019-03-20T10:35:03.052Z,37.65
2019-03-20T10:36:03.016Z,37.95
2019-03-20T10:37:03.023Z,39.25
2019-03-20T10:38:02.994Z,38.82
2019-03-20T10:39:06.774Z,38.10
2019-03-20T10:40:02.977Z,38.59
2019-03-20T10:41:02.984Z,37.26
2019-03-20T10:42:02.951Z,38.59
2019-03-20T10:43:02.943Z,38.02
2019-03-20T10:44:02.957Z,38.75
2019-03-20T10:45:02.937Z,39.25
2019-03-20T10:46:02.960Z,38.52
2019-03-20T10:47:02.898Z,40.12
2019-03-20T10:48:02.888Z,39.11
2019-03-20T10:49:02.910Z,40.03
2019-03-20T10:50:02.874Z,39.31
2019-03-20T10:51:02.860Z,40.14
2019-03-20T10:52:02.851Z,40.44
2019-03-20T10:53:02.843Z,40.76
2019-03-20T10:54:02.870Z,39.15
2019-03-20T10:55:02.824Z,39.17
2019-03-20T10:56:02.798Z,41.79
2019-03-20T10:57:02.812Z,39.57
2019-03-20T10:58:02.782Z,41.41
2019-03-20T10:59:02.785Z,41.79
2019-03-20T11:00:02.792Z,41.08
2019-03-20T11:01:02.810Z,40.28
2019-03-20T11:02:02.822Z,40.88
2019-03-20T11:03:02.737Z,39.37
2019-03-20T11:04:02.741Z,41.05
2019-03-20T11:05:02.729Z,41.77
2019-03-20T11:06:02.696Z,40.56
2019-03-20T11:07:02.697Z,40.96
2019-03-20T11:08:02.689Z,39.85
2019-03-20T11:09:02.744Z,40.54
2019-03-20T11:10:02.692Z,40.74
2019-03-20T11:11:02.656Z,41.13
2019-03-20T11:12:02.627Z,40.42
2019-03-20T11:13:02.633Z,40.42
2019-03-20T11:14:02.690Z,39.03
2019-03-20T11:15:02.593Z,39.95
2019-03-20T11:16:02.585Z,41.16
2019-03-20T11:17:02.582Z,39.73
2019-03-20T11:18:02.562Z,39.31
2019-03-20T11:19:02.644Z,39.68
2019-03-20T11:20:02.557Z,39.03
2019-03-20T11:21:02.542Z,37.89
2019-03-20T11:22:02.534Z,36.45
2019-03-20T11:23:02.524Z,37.55
2019-03-20T11:24:02.530Z,35.75
2019-03-20T11:25:02.491Z,37.26
2019-03-20T11:26:02.520Z,36.58
2019-03-20T11:27:02.493Z,36.99
2019-03-20T11:28:02.482Z,37.61
2019-03-20T11:29:02.470Z,37.21
2019-03-20T11:30:02.458Z,38.75
2019-03-20T11:31:02.427Z,38.47
2019-03-20T11:32:02.434Z,38.77
2019-03-20T11:33:02.410Z,37.87
2019-03-20T11:34:02.541Z,38.71
2019-03-20T11:35:02.401Z,39.59
2019-03-20T11:36:02.375Z,39.39
2019-03-20T11:37:02.371Z,39.09
2019-03-20T11:38:02.392Z,39.70
2019-03-20T11:39:02.383Z,39.41
2019-03-20T11:40:02.347Z,39.73
2019-03-20T11:41:02.323Z,41.87
2019-03-20T11:42:02.321Z,40.98
2019-03-20T11:43:02.302Z,42.19
2019-03-20T11:44:02.356Z,41.55
2019-03-20T11:45:02.290Z,39.48
2019-03-20T11:46:02.284Z,39.32
2019-03-20T11:47:02.277Z,39.08
2019-03-20T11:48:02.247Z,37.35
2019-03-20T11:49:02.263Z,38.42
2019-03-20T11:50:02.226Z,35.51
2019-03-20T11:51:02.237Z,36.05
2019-03-20T11:52:02.212Z,36.85
2019-03-20T11:53:02.207Z,37.34
2019-03-20T11:54:02.243Z,35.01
2019-03-20T11:55:02.213Z,35.80
2019-03-20T11:56:02.161Z,36.90
2019-03-20T11:57:02.151Z,37.22
2019-03-20T11:58:02.236Z,34.44
2019-03-20T11:59:02.135Z,36.36
2019-03-20T12:00:02.172Z,37.79
2019-03-20T12:01:02.108Z,36.69
2019-03-20T12:02:02.130Z,37.51
2019-03-20T12:03:02.090Z,37.41
2019-03-20T12:04:02.115Z,37.41
2019-03-20T12:05:02.083Z,37.71
2019-03-20T12:06:02.059Z,38.29
2019-03-20T12:07:02.047Z,37.29
2019-03-20T12:08:02.041Z,37.19
2019-03-20T12:09:02.034Z,37.29
2019-03-20T12:10:02.037Z,37.79
2019-03-20T12:11:02.028Z,37.87
2019-03-20T12:12:02.010Z,38.20
2019-03-20T12:13:01.989Z,37.59
2019-03-20T12:14:01.973Z,36.77
2019-03-20T12:15:02.042Z,37.37
2019-03-20T12:16:01.974Z,38.07
2019-03-20T12:17:01.950Z,35.35
2019-03-20T12:18:01.934Z,36.05
2019-03-20T12:19:01.928Z,37.04
2019-03-20T12:20:01.939Z,35.55
2019-03-20T12:21:01.905Z,36.49
2019-03-20T12:22:01.897Z,36.70
2019-03-20T12:23:01.926Z,38.31
2019-03-20T12:24:01.874Z,37.89
2019-03-20T12:25:01.876Z,36.89
2019-03-20T12:26:01.867Z,36.79
2019-03-20T12:27:01.894Z,37.47
2019-03-20T12:28:01.827Z,37.59
2019-03-20T12:29:01.827Z,36.89
2019-03-20T12:30:01.835Z,37.47
2019-03-20T12:31:01.809Z,37.29
2019-03-20T12:32:01.797Z,36.60
2019-03-20T12:33:01.784Z,37.91
2019-03-20T12:34:02.350Z,38.01
2019-03-20T12:35:01.772Z,38.49
2019-03-20T12:36:01.774Z,36.95
2019-03-20T12:37:01.740Z,37.05
2019-03-20T12:38:13.350Z,36.93
2019-03-20T12:39:02.723Z,37.34
2019-03-20T12:40:01.732Z,36.83
2019-03-20T12:41:01.711Z,35.55
2019-03-20T12:42:01.741Z,35.64
2019-03-20T12:43:01.683Z,35.57
2019-03-20T12:44:01.663Z,36.79
2019-03-20T12:45:01.702Z,37.49
2019-03-20T12:46:01.636Z,37.39
2019-03-20T12:47:01.667Z,37.21
2019-03-20T12:48:01.619Z,37.30
2019-03-20T12:49:01.610Z,37.19
2019-03-20T12:50:01.611Z,36.00
2019-03-20T12:51:01.585Z,36.82
2019-03-20T12:52:01.588Z,37.02